createdAt,value
2022-08-18T00:02:08.938Z,21.38
2022-08-18T00:04:46.030Z,21.41
2022-08-18T00:07:23.190Z,21.44
2022-08-18T00:09:51.059Z,21.34
2022-08-18T00:12:25.104Z,21.13
2022-08-18T00:14:53.904Z,21.15
2022-08-18T00:17:21.421Z,21.17
2022-08-18T00:19:48.779Z,21.09
2022-08-18T00:22:19.974Z,21.10
2022-08-18T00:24:50.241Z,21.07
2022-08-18T00:27:29.361Z,21.15
2022-08-18T00:30:01.848Z,21.03
2022-08-18T00:32:33.541Z,21.19
2022-08-18T00:35:10.246Z,21.30
2022-08-18T00:37:37.721Z,21.29
2022-08-18T00:40:06.215Z,21.21
2022-08-18T00:42:34.379Z,21.34
2022-08-18T00:45:04.486Z,21.41
2022-08-18T00:47:41.503Z,21.11
2022-08-18T00:50:21.424Z,21.27
2022-08-18T00:53:05.727Z,21.32
2022-08-18T00:55:33.785Z,21.31
2022-08-18T00:58:10.018Z,21.11
2022-08-18T01:00:37.607Z,20.95
2022-08-18T01:03:09.395Z,21.10
2022-08-18T01:05:43.194Z,21.10
2022-08-18T01:08:14.447Z,20.97
2022-08-18T01:10:42.654Z,21.04
2022-08-18T01:13:10.593Z,21.26
2022-08-18T01:15:38.426Z,21.12
2022-08-18T01:18:28.912Z,21.05
2022-08-18T01:21:26.800Z,20.86
2022-08-18T01:23:55.329Z,20.86
2022-08-18T01:26:24.592Z,21.00
2022-08-18T01:28:52.474Z,20.84
2022-08-18T01:31:31.183Z,20.62
2022-08-18T01:33:59.431Z,20.55
2022-08-18T01:36:27.132Z,20.46
2022-08-18T01:38:54.502Z,20.43
2022-08-18T01:41:29.448Z,20.77
2022-08-18T01:43:59.288Z,20.45
2022-08-18T01:46:29.371Z,20.17
2022-08-18T01:48:58.625Z,20.23
2022-08-18T01:51:40.025Z,20.42
2022-08-18T01:54:11.192Z,20.47
2022-08-18T01:56:38.329Z,20.57
2022-08-18T01:59:07.465Z,20.16
2022-08-18T02:01:39.048Z,20.00
2022-08-18T02:04:34.374Z,19.93
2022-08-18T02:07:09.244Z,20.05
2022-08-18T02:09:38.117Z,20.08
2022-08-18T02:12:07.213Z,19.97
2022-08-18T02:14:35.963Z,19.70
2022-08-18T02:17:05.209Z,19.78
2022-08-18T02:19:42.090Z,19.49
2022-08-18T02:22:11.818Z,19.25
2022-08-18T02:24:39.157Z,19.25
2022-08-18T02:27:07.395Z,19.05
2022-08-18T02:29:35.394Z,18.88
2022-08-18T02:32:02.864Z,18.79
2022-08-18T02:34:30.206Z,18.98
2022-08-18T02:37:00.131Z,18.64
2022-08-18T02:39:28.449Z,18.60
2022-08-18T02:41:56.332Z,18.73
2022-08-18T02:44:23.726Z,18.41
2022-08-18T02:46:54.782Z,18.22
2022-08-18T02:49:22.120Z,18.12
2022-08-18T02:51:51.276Z,18.19
2022-08-18T02:54:20.487Z,18.36
2022-08-18T02:56:47.845Z,18.37
2022-08-18T02:59:17.440Z,18.53
2022-08-18T03:01:48.019Z,18.50
2022-08-18T03:04:22.910Z,18.59
2022-08-18T03:06:56.348Z,18.54
2022-08-18T03:09:24.503Z,18.48
2022-08-18T03:11:52.837Z,18.55
2022-08-18T03:14:20.069Z,18.86
2022-08-18T03:16:54.463Z,19.04
2022-08-18T03:19:29.600Z,19.13
2022-08-18T03:22:03.091Z,18.98
2022-08-18T03:24:32.377Z,18.72
2022-08-18T03:27:01.671Z,18.70
2022-08-18T03:29:32.501Z,18.89
2022-08-18T03:32:02.092Z,18.71
2022-08-18T03:34:29.817Z,18.63
2022-08-18T03:36:57.993Z,18.70
2022-08-18T03:39:27.777Z,18.95
2022-08-18T03:42:00.102Z,18.96
2022-08-18T03:44:31.072Z,18.90
2022-08-18T03:46:58.965Z,18.93
2022-08-18T03:49:27.291Z,19.07
2022-08-18T03:51:54.790Z,19.12
2022-08-18T03:54:22.759Z,19.07
2022-08-18T03:56:50.119Z,18.98
2022-08-18T03:59:21.915Z,19.32
2022-08-18T04:01:51.144Z,19.30
2022-08-18T04:04:22.226Z,19.08
2022-08-18T04:06:58.469Z,19.00
2022-08-18T04:09:28.092Z,18.88
2022-08-18T04:11:56.164Z,18.91
2022-08-18T04:14:25.135Z,18.94
2022-08-18T04:16:53.115Z,18.93
2022-08-18T04:19:25.176Z,18.88
2022-08-18T04:21:56.112Z,18.78
2022-08-18T04:24:23.687Z,18.78
2022-08-18T04:26:52.384Z,18.82
2022-08-18T04:29:21.410Z,19.06
2022-08-18T04:31:50.484Z,19.23
2022-08-18T04:34:20.420Z,19.19
2022-08-18T04:36:48.529Z,19.32
2022-08-18T04:39:15.923Z,19.53
2022-08-18T04:41:44.055Z,19.58
2022-08-18T04:44:12.621Z,19.45
2022-08-18T04:46:43.743Z,19.45
2022-08-18T04:49:11.927Z,19.56
2022-08-18T04:52:34.204Z,19.51
2022-08-18T04:54:36.580Z,19.58
2022-08-18T04:57:16.923Z,19.82
2022-08-18T04:59:46.111Z,19.59
2022-08-18T05:02:15.013Z,19.83
2022-08-18T05:04:47.334Z,19.95
2022-08-18T05:07:17.880Z,19.89
2022-08-18T05:09:45.180Z,19.70
2022-08-18T05:12:14.185Z,19.62
2022-08-18T05:14:44.725Z,19.37
2022-08-18T05:17:14.353Z,19.28
2022-08-18T05:19:44.275Z,19.18
2022-08-18T05:22:14.616Z,19.17
2022-08-18T05:24:43.522Z,19.22
2022-08-18T05:27:10.797Z,19.27
2022-08-18T05:29:45.700Z,19.46
2022-08-18T05:32:38.311Z,19.23
2022-08-18T05:35:12.295Z,19.05
2022-08-18T05:37:57.195Z,18.86
2022-08-18T05:40:26.066Z,18.97
2022-08-18T05:42:56.061Z,18.79
2022-08-18T05:45:23.842Z,18.34
2022-08-18T05:47:51.551Z,18.13
2022-08-18T05:50:20.837Z,18.12
2022-08-18T05:53:14.556Z,18.27
2022-08-18T05:56:12.281Z,18.56
2022-08-18T05:58:43.571Z,18.81
2022-08-18T06:01:20.592Z,19.18
2022-08-18T06:04:07.333Z,19.55
2022-08-18T06:06:36.952Z,19.42
2022-08-18T06:09:18.904Z,19.18
2022-08-18T06:11:47.228Z,19.55
2022-08-18T06:14:14.649Z,19.60
2022-08-18T06:17:23.666Z,19.84
2022-08-18T06:20:14.318Z,20.20
2022-08-18T06:23:01.421Z,20.43
2022-08-18T06:25:35.040Z,20.37
2022-08-18T06:28:15.689Z,20.49
2022-08-18T06:30:55.247Z,20.46
2022-08-18T06:33:46.118Z,20.53
2022-08-18T06:36:28.592Z,20.33
2022-08-18T06:39:02.686Z,20.49
2022-08-18T06:41:42.433Z,20.54
2022-08-18T06:44:16.761Z,20.65
2022-08-18T06:46:54.530Z,20.89
2022-08-18T06:49:31.569Z,20.91
2022-08-18T06:51:59.014Z,20.78
2022-08-18T06:54:28.500Z,20.83
2022-08-18T06:56:57.681Z,20.74
2022-08-18T06:59:32.330Z,20.92
2022-08-18T07:02:04.241Z,21.04
2022-08-18T07:04:43.627Z,20.80
2022-08-18T07:07:40.087Z,21.09
2022-08-18T07:10:35.159Z,20.90
2022-08-18T07:13:12.596Z,20.87
2022-08-18T07:15:40.534Z,20.99
2022-08-18T07:18:09.074Z,21.11
2022-08-18T07:20:58.270Z,21.01
2022-08-18T07:23:31.619Z,20.97
2022-08-18T07:26:08.957Z,20.90
2022-08-18T07:28:38.612Z,20.92
2022-08-18T07:31:24.907Z,20.85
2022-08-18T07:34:15.031Z,20.76
2022-08-18T07:36:47.405Z,20.95
2022-08-18T07:39:21.176Z,20.92
2022-08-18T07:41:52.915Z,21.01
2022-08-18T07:44:34.904Z,21.20
2022-08-18T07:47:05.359Z,21.17
2022-08-18T07:49:35.404Z,21.24
2022-08-18T07:52:35.873Z,21.40
2022-08-18T07:55:24.704Z,21.49
2022-08-18T07:58:00.438Z,21.48
2022-08-18T08:00:58.573Z,21.64
2022-08-18T08:03:59.581Z,21.80
2022-08-18T08:06:33.918Z,22.15
2022-08-18T08:09:22.775Z,21.86
2022-08-18T08:12:21.693Z,21.89
2022-08-18T08:14:52.105Z,22.08
2022-08-18T08:17:32.953Z,22.38
2022-08-18T08:20:20.595Z,23.14
2022-08-18T08:23:06.060Z,23.21
2022-08-18T08:25:46.403Z,22.93
2022-08-18T08:29:11.753Z,22.58
2022-08-18T08:31:49.648Z,22.26
2022-08-18T08:34:20.218Z,22.37
2022-08-18T08:36:48.004Z,22.21
2022-08-18T08:39:25.492Z,22.31
2022-08-18T08:42:30.761Z,22.86
2022-08-18T08:45:00.066Z,22.89
2022-08-18T08:47:46.096Z,22.94
2022-08-18T08:50:16.947Z,23.19
2022-08-18T08:53:12.528Z,23.04
2022-08-18T08:55:47.512Z,22.91
2022-08-18T08:58:27.106Z,22.80
2022-08-18T09:00:55.387Z,22.91
2022-08-18T09:03:34.809Z,22.95
2022-08-18T09:06:07.975Z,23.19
2022-08-18T09:08:50.334Z,22.84
2022-08-18T09:11:47.377Z,23.03
2022-08-18T09:14:49.657Z,23.38
2022-08-18T09:17:50.720Z,23.50
2022-08-18T09:20:49.201Z,23.17
2022-08-18T09:23:21.324Z,23.17
2022-08-18T09:25:54.075Z,22.96
2022-08-18T09:28:39.475Z,22.67
2022-08-18T09:34:27.564Z,22.71
2022-08-18T09:37:05.209Z,23.31
2022-08-18T09:39:54.749Z,23.17
2022-08-18T09:42:50.038Z,23.58
2022-08-18T09:45:47.087Z,23.80
2022-08-18T09:50:38.164Z,23.41
2022-08-18T09:51:19.277Z,23.63
2022-08-18T09:53:46.598Z,23.08
2022-08-18T09:56:19.892Z,23.35
2022-08-18T09:59:00.388Z,23.51
2022-08-18T10:01:34.205Z,23.90
2022-08-18T10:04:15.459Z,24.31
2022-08-18T10:06:48.715Z,24.35
2022-08-18T10:09:47.177Z,24.58
2022-08-18T10:15:26.978Z,24.83
2022-08-18T10:18:22.746Z,24.72
2022-08-18T10:21:20.093Z,25.01
2022-08-18T10:24:35.010Z,24.85
2022-08-18T10:27:31.980Z,24.77
2022-08-18T10:29:59.641Z,24.97
2022-08-18T10:32:44.322Z,24.86
2022-08-18T10:35:34.905Z,24.34
2022-08-18T10:38:46.095Z,24.53
2022-08-18T10:41:26.540Z,24.66
2022-08-18T10:43:59.300Z,24.60
2022-08-18T10:46:32.845Z,24.84
2022-08-18T10:49:13.266Z,25.16
2022-08-18T10:52:09.850Z,25.43
2022-08-18T10:55:10.603Z,25.72
2022-08-18T10:58:16.058Z,25.16
2022-08-18T11:00:56.717Z,25.04
2022-08-18T11:03:51.187Z,25.18
2022-08-18T11:06:26.885Z,25.26
2022-08-18T11:08:58.068Z,25.40
2022-08-18T11:11:38.100Z,25.40
2022-08-18T11:14:14.792Z,25.75
2022-08-18T11:16:45.167Z,25.33
2022-08-18T11:19:14.759Z,25.34
2022-08-18T11:21:51.127Z,25.95
2022-08-18T11:24:32.037Z,25.62
2022-08-18T11:27:09.805Z,25.27
2022-08-18T11:29:43.386Z,25.64
2022-08-18T11:32:18.010Z,25.72
2022-08-18T11:34:54.058Z,25.95
2022-08-18T11:37:48.796Z,25.71
2022-08-18T11:41:08.783Z,25.63
2022-08-18T11:43:17.339Z,25.59
2022-08-18T11:45:55.453Z,25.87
2022-08-18T11:48:37.651Z,25.59
2022-08-18T11:51:25.707Z,25.82
2022-08-18T11:54:08.445Z,26.11
2022-08-18T11:56:38.848Z,25.67
2022-08-18T11:59:08.456Z,25.76
2022-08-18T12:01:51.657Z,25.85
2022-08-18T12:04:40.189Z,26.34
2022-08-18T12:07:13.413Z,26.83
2022-08-18T12:10:16.052Z,26.58
2022-08-18T12:12:47.989Z,25.78
2022-08-18T12:15:23.754Z,26.31
2022-08-18T12:20:39.117Z,27.02
2022-08-18T12:23:06.334Z,27.16
2022-08-18T12:25:33.570Z,27.16
2022-08-18T12:28:00.788Z,27.49
2022-08-18T12:30:28.396Z,27.60
2022-08-18T12:32:55.919Z,27.27
2022-08-18T12:35:34.722Z,27.20
2022-08-18T12:38:05.163Z,27.59
2022-08-18T12:40:41.658Z,27.74
2022-08-18T12:43:09.234Z,26.80
2022-08-18T12:45:38.232Z,26.31
2022-08-18T12:48:06.805Z,26.20
2022-08-18T12:50:58.615Z,25.74
2022-08-18T12:53:30.068Z,25.62
2022-08-18T12:56:08.776Z,25.93
2022-08-18T12:58:38.709Z,26.52
2022-08-18T13:01:08.120Z,26.85
2022-08-18T13:03:35.411Z,26.46
2022-08-18T13:06:04.830Z,26.31
2022-08-18T13:08:33.683Z,26.28
2022-08-18T13:11:21.694Z,26.73
2022-08-18T13:13:56.102Z,26.52
2022-08-18T13:16:38.850Z,26.55
2022-08-18T13:19:13.975Z,26.02
2022-08-18T13:21:43.067Z,25.80
2022-08-18T13:24:12.725Z,25.61
2022-08-18T13:26:45.794Z,25.88
2022-08-18T13:29:17.936Z,25.89
2022-08-18T13:31:56.065Z,26.14
2022-08-18T13:34:29.705Z,26.14
2022-08-18T13:36:57.690Z,26.56
2022-08-18T13:39:25.721Z,26.98
2022-08-18T13:42:26.068Z,26.97
2022-08-18T13:44:52.853Z,26.91
2022-08-18T13:47:22.150Z,26.82
2022-08-18T13:49:57.878Z,27.12
2022-08-18T13:52:34.431Z,27.22
2022-08-18T13:55:07.992Z,27.05
2022-08-18T13:57:37.331Z,27.42
2022-08-18T14:00:07.754Z,27.77
2022-08-18T14:02:48.290Z,27.74
2022-08-18T14:05:16.432Z,27.92
2022-08-18T14:07:44.563Z,28.04
2022-08-18T14:10:13.579Z,28.15
2022-08-18T14:12:41.671Z,28.16
2022-08-18T14:15:11.912Z,28.28
2022-08-18T14:17:39.654Z,27.32
2022-08-18T14:20:27.206Z,27.50
2022-08-18T14:23:22.097Z,27.45
2022-08-18T14:26:11.448Z,27.52
2022-08-18T14:28:41.228Z,27.73
2022-08-18T14:31:09.311Z,27.32
2022-08-18T14:33:51.585Z,27.18
2022-08-18T14:36:30.026Z,27.46
2022-08-18T14:38:59.850Z,27.39
2022-08-18T14:41:27.575Z,27.58
2022-08-18T14:44:13.701Z,27.71
2022-08-18T14:46:52.348Z,27.20
2022-08-18T14:49:29.287Z,27.16
2022-08-18T14:51:58.736Z,27.06
2022-08-18T14:54:28.225Z,27.04
2022-08-18T14:56:56.185Z,27.07
2022-08-18T14:59:25.581Z,27.03
2022-08-18T15:01:53.394Z,27.13
2022-08-18T15:04:21.448Z,27.28
2022-08-18T15:06:55.693Z,27.21
2022-08-18T15:09:27.182Z,27.41
2022-08-18T15:11:58.037Z,27.37
2022-08-18T15:14:34.800Z,27.39
2022-08-18T15:17:03.808Z,27.59
2022-08-18T15:20:00.508Z,27.52
2022-08-18T15:22:44.893Z,27.18
2022-08-18T15:25:30.960Z,26.99
2022-08-18T15:27:59.663Z,27.15
2022-08-18T15:30:27.121Z,27.16
2022-08-18T15:32:54.551Z,27.24
2022-08-18T15:35:21.873Z,27.33
2022-08-18T15:37:51.334Z,27.34
2022-08-18T15:40:35.590Z,27.04
2022-08-18T15:43:09.763Z,26.89
2022-08-18T15:45:43.281Z,27.11
2022-08-18T15:48:24.465Z,27.31
2022-08-18T15:50:52.435Z,27.60
2022-08-18T15:53:25.471Z,27.43
2022-08-18T15:55:57.457Z,27.55
2022-08-18T15:58:26.884Z,27.71
2022-08-18T16:00:58.852Z,27.56
2022-08-18T16:03:26.484Z,27.62
2022-08-18T16:05:55.115Z,27.45
2022-08-18T16:08:24.823Z,27.67
2022-08-18T16:10:53.004Z,27.81
2022-08-18T16:13:21.017Z,27.77
2022-08-18T16:15:50.167Z,27.59
2022-08-18T16:18:19.122Z,27.25
2022-08-18T16:20:47.020Z,27.43
2022-08-18T16:23:14.696Z,27.62
2022-08-18T16:25:43.384Z,27.61
2022-08-18T16:28:13.145Z,27.46
2022-08-18T16:30:40.945Z,27.41
2022-08-18T16:33:08.480Z,27.60
2022-08-18T16:35:37.341Z,27.61
2022-08-18T16:38:08.541Z,27.73
2022-08-18T16:40:37.553Z,27.66
2022-08-18T16:43:07.212Z,27.73
2022-08-18T16:45:37.024Z,27.51
2022-08-18T16:48:07.359Z,27.34
2022-08-18T16:50:35.153Z,27.23
2022-08-18T16:53:02.577Z,27.03
2022-08-18T16:55:30.478Z,27.12
2022-08-18T16:58:16.283Z,27.14
2022-08-18T17:01:02.799Z,27.20
2022-08-18T17:03:48.737Z,27.14
2022-08-18T17:06:17.866Z,26.95
2022-08-18T17:08:46.797Z,27.07
2022-08-18T17:11:17.047Z,26.80
2022-08-18T17:13:46.432Z,26.82
2022-08-18T17:16:14.114Z,26.65
2022-08-18T17:18:41.968Z,26.72
2022-08-18T17:21:13.132Z,26.76
2022-08-18T17:23:41.120Z,26.61
2022-08-18T17:26:12.777Z,26.57
2022-08-18T17:28:47.987Z,26.71
2022-08-18T17:31:24.373Z,26.75
2022-08-18T17:33:53.628Z,26.68
2022-08-18T17:36:23.841Z,26.76
2022-08-18T17:38:57.402Z,26.73
2022-08-18T17:41:25.472Z,26.81
2022-08-18T17:43:55.718Z,26.62
2022-08-18T17:46:28.187Z,26.78
2022-08-18T17:49:00.234Z,26.86
2022-08-18T17:51:43.586Z,26.45
2022-08-18T17:54:38.472Z,26.37
2022-08-18T17:57:36.840Z,26.40
2022-08-18T18:00:12.723Z,26.15
2022-08-18T18:02:42.176Z,25.87
2022-08-18T18:05:12.851Z,25.92
2022-08-18T18:07:52.372Z,25.77
2022-08-18T18:10:25.350Z,25.65
2022-08-18T18:13:27.217Z,25.61
2022-08-18T18:15:58.250Z,25.68
2022-08-18T18:18:37.065Z,25.53
2022-08-18T18:21:08.764Z,25.46
2022-08-18T18:23:50.772Z,25.48
2022-08-18T18:26:35.677Z,25.51
2022-08-18T18:29:15.136Z,25.53
2022-08-18T18:31:58.180Z,25.60
2022-08-18T18:34:29.731Z,25.60
2022-08-18T18:36:58.307Z,25.44
2022-08-18T18:39:34.027Z,25.24
2022-08-18T18:42:18.042Z,25.23
2022-08-18T18:45:13.844Z,25.08
2022-08-18T18:47:57.613Z,25.00
2022-08-18T18:50:52.975Z,24.98
2022-08-18T18:53:26.203Z,24.78
2022-08-18T18:56:22.382Z,24.83
2022-08-18T18:59:20.043Z,24.85
2022-08-18T19:02:02.383Z,24.71
2022-08-18T19:04:58.800Z,24.64
2022-08-18T19:07:31.003Z,24.45
2022-08-18T19:10:09.724Z,24.45
2022-08-18T19:12:44.315Z,24.35
2022-08-18T19:15:16.750Z,24.38
2022-08-18T19:17:47.625Z,24.26
2022-08-18T19:20:22.833Z,24.56
2022-08-18T19:22:54.639Z,24.42
2022-08-18T19:25:32.251Z,24.17
2022-08-18T19:28:04.214Z,24.18
2022-08-18T19:30:33.746Z,24.24
2022-08-18T19:33:04.171Z,24.20
2022-08-18T19:35:59.034Z,24.05
2022-08-18T19:38:33.653Z,24.00
2022-08-18T19:41:10.935Z,24.01
2022-08-18T19:43:48.377Z,24.13
2022-08-18T19:46:16.221Z,24.04
2022-08-18T19:48:52.964Z,23.80
2022-08-18T19:51:26.393Z,23.73
2022-08-18T19:54:30.981Z,23.81
2022-08-18T19:57:12.819Z,23.67
2022-08-18T19:59:53.812Z,23.88
2022-08-18T20:02:32.787Z,23.60
2022-08-18T20:05:41.900Z,23.66
2022-08-18T20:08:37.099Z,23.58
2022-08-18T20:11:30.424Z,23.69
2022-08-18T20:14:11.839Z,23.31
2022-08-18T20:16:43.894Z,23.29
2022-08-18T20:19:40.096Z,23.28
2022-08-18T20:22:16.112Z,23.15
2022-08-18T20:24:53.575Z,23.22
2022-08-18T20:27:41.868Z,23.09
2022-08-18T20:30:32.870Z,23.02
2022-08-18T20:33:07.086Z,23.09
2022-08-18T20:35:40.888Z,22.75
2022-08-18T20:38:19.374Z,22.69
2022-08-18T20:40:49.574Z,22.75
2022-08-18T20:43:31.708Z,22.72
2022-08-18T20:46:32.507Z,22.69
2022-08-18T20:49:34.109Z,22.74
2022-08-18T20:52:13.101Z,22.76
2022-08-18T20:54:57.509Z,22.76
2022-08-18T20:57:29.902Z,22.64
2022-08-18T21:00:05.615Z,22.72
2022-08-18T21:02:38.590Z,22.74
2022-08-18T21:05:08.997Z,22.59
2022-08-18T21:08:16.940Z,22.58
2022-08-18T21:10:52.566Z,22.61
2022-08-18T21:13:41.892Z,22.46
2022-08-18T21:16:37.731Z,22.83
2022-08-18T21:19:08.623Z,22.43
2022-08-18T21:21:42.223Z,22.30
2022-08-18T21:24:20.118Z,22.45
2022-08-18T21:26:48.246Z,22.55
2022-08-18T21:29:16.158Z,22.38
2022-08-18T21:31:45.421Z,22.15
2022-08-18T21:34:30.494Z,21.93
2022-08-18T21:36:58.343Z,22.04
2022-08-18T21:39:25.655Z,22.01
2022-08-18T21:41:56.614Z,22.14
2022-08-18T21:44:43.391Z,22.04
2022-08-18T21:47:31.466Z,21.88
2022-08-18T21:50:01.634Z,21.71
2022-08-18T21:52:30.145Z,21.73
2022-08-18T21:55:02.529Z,21.90
2022-08-18T21:57:49.032Z,21.40
2022-08-18T22:00:25.739Z,21.40
2022-08-18T22:03:16.796Z,21.41
2022-08-18T22:06:13.993Z,21.59
2022-08-18T22:09:35.349Z,21.73
2022-08-18T22:12:43.274Z,21.91
2022-08-18T22:15:22.240Z,21.97
2022-08-18T22:17:52.168Z,22.11
2022-08-18T22:20:41.422Z,21.62
2022-08-18T22:23:33.244Z,21.40
2022-08-18T22:26:21.937Z,21.21
2022-08-18T22:29:06.691Z,21.51
2022-08-18T22:31:35.611Z,21.34
2022-08-18T22:34:09.051Z,21.49
2022-08-18T22:36:41.606Z,21.67
2022-08-18T22:39:11.397Z,21.30
2022-08-18T22:41:39.493Z,21.12
2022-08-18T22:44:07.246Z,20.99
2022-08-18T22:46:35.000Z,21.42
2022-08-18T22:49:03.961Z,20.99
2022-08-18T22:51:36.287Z,21.13
2022-08-18T22:54:06.910Z,21.56
2022-08-18T22:56:35.793Z,21.33
2022-08-18T22:59:16.133Z,21.08
2022-08-18T23:01:49.175Z,20.60
2022-08-18T23:04:18.094Z,20.65
2022-08-18T23:06:54.585Z,20.59
2022-08-18T23:09:27.366Z,20.32
2022-08-18T23:11:58.387Z,20.37
2022-08-18T23:14:26.207Z,20.26
2022-08-18T23:16:53.642Z,20.33
2022-08-18T23:19:21.538Z,20.31
2022-08-18T23:21:49.299Z,20.40
2022-08-18T23:24:17.600Z,20.59
2022-08-18T23:26:45.616Z,20.66
2022-08-18T23:29:14.578Z,20.58
2022-08-18T23:31:44.477Z,20.78
2022-08-18T23:34:13.359Z,20.72
2022-08-18T23:36:45.392Z,20.64
2022-08-18T23:39:13.829Z,20.28
2022-08-18T23:41:41.121Z,20.52
2022-08-18T23:44:08.417Z,20.55
2022-08-18T23:46:35.939Z,20.25
2022-08-18T23:49:10.628Z,20.27
2022-08-18T23:51:44.046Z,20.58
2022-08-18T23:54:17.874Z,20.91
2022-08-18T23:56:45.810Z,20.57
2022-08-18T23:59:14.756Z,20.78
